메인 페이지
METAR-TAF:

METAR-TAF

공항 :

Naval Air Station Lemoore (Reeves Field)

Lemoore, 캘리포니아, 미국

위도: 36-18-13N, 경도: 119-56-17W, 고도: 71m

현재 날씨관측

예보는 30분 전, 22:56시(UTC)에 발표되었습니다.
여러 방향의 바람 6kt
온도 33°C
습도 24%
기압 1012 hPa
시정: 9.7km
고도 21000ft 상공 구름 많음
연무

METAR: KNLC 212256Z VRB06KT 6SM HZ BKN210 33/10 A2987 RMK AO2 SLP113 RH/22 T03330100

시각: 16:26 (23:26 UTC)

예보

예보 대상 시간: 21일 23시부터 22일 23시까지 (UTC)
북북서7kt
시정: 8000m
고도 21000ft 상공 구름 많음
연무
일시적
21일 23시부터 22일 02시까지 (UTC)
여러 방향의 바람 6kt
시정 10km 이상
22일 0200시부터 (UTC)
북서8kt
시정: 9000m
고도 21000ft 상공 구름 많음
연무

TAF: KNLC 2123/2223 33007KT 8000 HZ BKN210 QNH2982INS TEMPO 2123/2202 VRB06KT 9999 FM220200 32008KT 9000 HZ BKN210 QNH2981INS T17/2213Z T35/2223Z FS30067

4,000개 이상의 공항 관측 자료 및 예보 (METAR 및 TAF 보고).

지도상에서 검색 가능한 기상관측소가 노란 점과 빨간 점으로 표시되어 있습니다.

기상관측소 명을 보려면 표시 위로 마우스를 이동하세요.

날씨 관측과 예보를 보려면 클릭하세요.

지도 변경 : 확대하려면 엑스 표시가 있는 녹색 버튼, 축소하려면 빼기 표시가 있는 녹색 버튼, 다음 페이지의 지도를 보려면 녹색 화살표를 클릭하세요.


METAR-TAF: